Meriden, Iowa
Current Conditions -  °F | °C
As of 12:55 AM on Thursday 23 Oct 2014 (Local Time) from KCKP Reporting Station
Light Rain Light Rain  
Wind Chill: 58°   Ceiling: 3200
Heat Index: 58°   Visibility: 7mi
Dew Point: 58°   Wind: 6mph
Humidity: 100%   Direction: 170°S
Pressure: 30.01"   Gusts: NA
Location:  42.79°N, 95.63°W
Report Text: KCKP 230555Z AUTO 17005KT 7SM -RA SCT023 BKN032 OVC040 14/14 A3001 RMK AO2 P0001 60027 T01420142 10196 20142 402250091
Loading
Personal Weather Stations






























Interactive Weather Map
Tropical Storm Tracking
New forecast layout! Learn more

10-Day Weather Forecast

Advertisements
Track Severe Weather on mobile